Time;durP1;ratioP1;P1;durP2;ratioP2;P2;SDS_P1;SDS_P2;PMS_P1;PMS_P2;Temp;Humidity;BMP_temperature;BMP_pressure;BME280_temperature;BME280_humidity;BME280_pressure;Samples;Min_cycle;Max_cycle;Signal;HPM_P1;HPM_P2
2021/06/13 00:01:27;;;;;;;6.83;5.33;;;;;;;17.03;72.35;98662.50;1793914;79;21507;-74
2021/06/13 00:03:54;;;;;;;7.22;5.40;;;;;;;16.95;72.61;98648.69;1796264;80;21477;-75
2021/06/13 00:06:22;;;;;;;10.05;5.50;;;;;;;16.91;72.68;98647.39;1781723;80;21635;-74
2021/06/13 00:08:49;;;;;;;7.53;5.45;;;;;;;16.99;72.65;98639.83;1785042;80;21073;-75
2021/06/13 00:11:15;;;;;;;7.72;5.60;;;;;;;16.97;72.79;98643.16;1786865;80;21036;-75
2021/06/13 00:13:42;;;;;;;6.10;5.08;;;;;;;16.88;72.98;98635.19;1788629;80;21009;-75
2021/06/13 00:16:08;;;;;;;7.85;5.58;;;;;;;16.90;72.99;98632.84;1747912;82;20966;-75
2021/06/13 00:18:35;;;;;;;7.08;5.37;;;;;;;16.95;72.90;98631.33;1739629;82;21089;-75
2021/06/13 00:21:02;;;;;;;6.10;5.50;;;;;;;16.88;73.03;98620.50;1723080;82;21091;-75
2021/06/13 00:23:28;;;;;;;7.28;5.53;;;;;;;16.83;73.17;98620.20;1739252;82;21073;-75
2021/06/13 00:25:55;;;;;;;13.28;7.95;;;;;;;16.90;73.01;98612.31;1740009;82;21075;-75
2021/06/13 00:28:21;;;;;;;8.85;6.60;;;;;;;16.93;72.89;98609.81;1739989;82;21037;-75
2021/06/13 00:30:47;;;;;;;10.98;6.53;;;;;;;16.84;73.07;98605.00;1727681;82;20984;-75
2021/06/13 00:33:14;;;;;;;9.45;6.22;;;;;;;16.77;73.24;98608.88;1738170;82;21001;-75
2021/06/13 00:35:40;;;;;;;7.83;6.35;;;;;;;16.86;73.08;98602.48;1721392;82;21052;-75
2021/06/13 00:38:07;;;;;;;9.68;6.20;;;;;;;16.88;73.13;98603.66;1714463;82;21055;-74
2021/06/13 00:40:34;;;;;;;7.60;6.03;;;;;;;16.80;73.25;98605.87;1720581;82;21009;-74
2021/06/13 00:43:00;;;;;;;9.75;6.33;;;;;;;16.77;73.32;98601.39;1741363;81;21041;-76
2021/06/13 00:45:27;;;;;;;7.50;6.10;;;;;;;16.86;73.14;98598.98;1731101;80;21046;-76
2021/06/13 00:47:55;;;;;;;26.00;15.30;;;;;;;16.86;73.17;98597.14;1790082;78;20981;-76
2021/06/13 00:50:35;;;;;;;74.65;36.33;;;;;;;16.78;73.31;98594.53;1757098;79;20949;-75
2021/06/13 00:53:04;;;;;;;59.67;31.87;;;;;;;16.73;73.44;98586.22;1711004;81;21509;-75
2021/06/13 00:55:32;;;;;;;34.38;18.92;;;;;;;16.84;73.16;98585.82;1735073;83;21060;-75
2021/06/13 00:58:00;;;;;;;29.48;15.40;;;;;;;16.86;73.01;98577.63;1714790;81;20977;-74
2021/06/13 01:00:28;;;;;;;25.70;14.25;;;;;;;16.79;73.06;98580.18;1781144;78;21140;-74
2021/06/13 01:02:56;;;;;;;23.75;12.93;;;;;;;16.74;73.08;98580.36;1748000;81;21548;-75
2021/06/13 01:05:26;;;;;;;16.27;10.13;;;;;;;16.74;72.96;98577.70;1752812;81;21060;-75
2021/06/13 01:08:41;;;;;;;19.02;12.75;;;;;;;16.81;72.69;98567.47;1742673;81;21050;-75
2021/06/13 01:11:22;;;;;;;18.95;10.72;;;;;;;16.75;72.52;98572.17;1724370;82;21036;-75
2021/06/13 01:14:31;;;;;;;12.00;8.30;;;;;;;16.61;72.63;98563.59;1764837;80;21452;-75
2021/06/13 01:17:09;;;;;;;13.08;7.28;;;;;;;16.55;72.65;98565.96;1777995;80;21023;-75
2021/06/13 01:20:16;;;;;;;9.35;6.87;;;;;;;16.57;72.49;98563.11;1785984;79;21574;-75
2021/06/13 01:23:11;;;;;;;8.78;6.92;;;;;;;16.46;72.71;98553.68;1750180;82;21071;-75
2021/06/13 01:26:34;;;;;;;8.95;6.83;;;;;;;16.33;73.09;98555.58;1764960;80;20980;-75
2021/06/13 01:29:16;;;;;;;10.00;6.95;;;;;;;16.36;73.05;98558.41;1782299;80;21051;-74
2021/06/13 01:31:54;;;;;;;8.75;6.70;;;;;;;16.41;72.68;98553.86;1763380;80;20993;-76
2021/06/13 01:34:41;;;;;;;8.70;7.10;;;;;;;16.32;72.71;98553.09;1762404;80;21511;-74
2021/06/13 01:37:13;;;;;;;8.70;6.28;;;;;;;16.24;73.11;98554.45;1768156;80;20944;-74
2021/06/13 01:39:40;;;;;;;9.25;7.00;;;;;;;16.27;73.16;98545.61;1767966;80;21058;-74
2021/06/13 01:42:10;;;;;;;60.43;31.20;;;;;;;16.32;73.19;98538.42;1765266;80;21074;-74
2021/06/13 01:44:43;;;;;;;30.43;16.62;;;;;;;16.26;73.45;98539.94;1767203;81;21019;-74
2021/06/13 01:47:10;;;;;;;9.48;6.90;;;;;;;16.20;73.67;98541.48;1767237;80;21515;-74
2021/06/13 01:49:38;;;;;;;9.13;7.25;;;;;;;16.28;73.52;98542.42;1766508;80;21504;-74
2021/06/13 01:52:06;;;;;;;10.78;6.90;;;;;;;16.32;73.44;98541.91;1740949;81;21385;-74
2021/06/13 01:54:33;;;;;;;7.55;6.33;;;;;;;16.26;73.63;98541.78;1739984;81;21615;-74
2021/06/13 01:57:01;;;;;;;8.30;6.37;;;;;;;16.19;73.79;98534.47;1761126;80;20972;-74
2021/06/13 01:59:30;;;;;;;7.70;6.60;;;;;;;16.29;73.66;98540.09;1738760;81;21044;-74
2021/06/13 02:01:58;;;;;;;8.08;6.83;;;;;;;16.28;73.70;98535.27;1777065;80;21511;-74
2021/06/13 02:04:27;;;;;;;7.35;5.97;;;;;;;16.20;73.95;98526.80;1775136;80;21559;-74
2021/06/13 02:06:58;;;;;;;10.50;7.50;;;;;;;16.19;74.08;98529.14;1732642;81;21500;-74
2021/06/13 02:09:28;;;;;;;7.92;6.72;;;;;;;16.29;73.97;98528.08;1715332;83;21068;-74
2021/06/13 02:12:00;;;;;;;11.80;6.95;;;;;;;16.25;74.10;98520.11;1756625;81;21523;-74
2021/06/13 02:14:29;;;;;;;11.93;7.17;;;;;;;16.18;74.33;98515.98;1753338;81;21021;-75
2021/06/13 02:16:59;;;;;;;9.65;7.35;;;;;;;16.28;74.26;98513.08;1703181;83;21025;-74
2021/06/13 02:19:30;;;;;;;12.05;7.70;;;;;;;16.30;74.19;98503.08;1760725;81;21671;-75
2021/06/13 02:22:00;;;;;;;8.38;7.03;;;;;;;16.25;74.32;98504.92;1718162;82;21061;-75
2021/06/13 02:24:31;;;;;;;9.15;7.05;;;;;;;16.21;74.46;98503.13;1758128;81;21591;-74
2021/06/13 02:26:57;;;;;;;10.80;7.03;;;;;;;16.33;74.31;98502.71;1756774;81;21509;-74
2021/06/13 02:29:25;;;;;;;10.53;7.15;;;;;;;16.34;74.37;98509.72;1748444;81;21076;-74
2021/06/13 02:31:52;;;;;;;8.18;6.65;;;;;;;16.27;74.53;98512.77;1756314;81;21028;-74
2021/06/13 02:34:25;;;;;;;11.50;7.58;;;;;;;16.29;74.51;98506.74;1757869;81;21005;-73
2021/06/13 02:36:55;;;;;;;10.72;7.00;;;;;;;16.36;74.41;98499.19;1757711;81;21020;-74
2021/06/13 02:39:21;;;;;;;8.20;6.30;;;;;;;16.35;74.57;98492.70;1723690;81;21100;-74
2021/06/13 02:41:48;;;;;;;10.72;7.17;;;;;;;16.34;74.70;98493.22;1690192;83;21059;-74
2021/06/13 02:44:18;;;;;;;10.00;7.00;;;;;;;16.44;74.49;98494.83;1722155;83;21104;-74
2021/06/13 02:46:45;;;;;;;9.03;7.12;;;;;;;16.52;74.38;98491.61;1756443;81;20988;-74
2021/06/13 02:49:12;;;;;;;8.03;6.70;;;;;;;16.52;74.48;98487.60;1752064;82;21016;-74
2021/06/13 02:51:57;;;;;;;11.60;6.85;;;;;;;16.53;74.46;98487.94;1734931;81;20964;-75
2021/06/13 02:54:23;;;;;;;8.88;6.85;;;;;;;16.68;74.19;98486.64;1726901;83;21083;-75
2021/06/13 02:56:59;;;;;;;8.05;6.85;;;;;;;16.73;74.08;98486.60;1732123;81;21053;-75
2021/06/13 02:59:52;;;;;;;9.13;6.60;;;;;;;16.71;74.14;98495.64;1718765;83;21018;-75
2021/06/13 03:02:23;;;;;;;8.98;6.62;;;;;;;16.71;74.09;98486.78;1756533;80;21019;-74
2021/06/13 03:04:50;;;;;;;8.73;6.72;;;;;;;16.88;73.71;98484.84;1757056;81;20977;-74
2021/06/13 03:07:18;;;;;;;13.18;7.95;;;;;;;16.89;73.59;98487.81;1732981;82;21009;-74
2021/06/13 03:09:45;;;;;;;9.55;7.40;;;;;;;16.84;73.67;98480.36;1748882;82;20990;-74
2021/06/13 03:12:13;;;;;;;9.05;7.08;;;;;;;16.87;73.67;98477.31;1746940;81;21021;-74
2021/06/13 03:14:42;;;;;;;8.28;6.62;;;;;;;17.02;73.57;98483.22;1749442;81;21577;-74
2021/06/13 03:17:11;;;;;;;8.78;6.75;;;;;;;17.07;73.59;98483.51;1749048;82;20990;-74
2021/06/13 03:19:40;;;;;;;8.25;6.35;;;;;;;17.13;73.56;98486.80;1748823;81;21577;-74
2021/06/13 03:22:06;;;;;;;7.47;6.20;;;;;;;17.28;73.24;98493.51;1748466;81;20973;-75
2021/06/13 03:24:38;;;;;;;9.68;6.90;;;;;;;17.45;72.90;98481.32;1748996;81;20971;-73
2021/06/13 03:27:07;;;;;;;8.95;7.47;;;;;;;17.53;72.82;98487.90;1719836;82;21015;-75
2021/06/13 03:29:40;;;;;;;7.22;6.28;;;;;;;17.62;72.66;98492.66;1749014;82;20997;-74
2021/06/13 03:32:11;;;;;;;9.80;6.62;;;;;;;17.89;72.17;98495.69;1716756;82;21024;-74
2021/06/13 03:34:42;;;;;;;8.35;6.35;;;;;;;18.43;71.26;98491.84;1742029;81;21149;-75
2021/06/13 03:37:11;;;;;;;8.63;6.70;;;;;;;18.88;70.08;98491.13;1719336;83;21123;-75
2021/06/13 03:39:38;;;;;;;9.65;7.03;;;;;;;19.32;68.89;98486.55;1738151;82;21069;-75
2021/06/13 03:42:06;;;;;;;7.37;6.12;;;;;;;19.80;67.48;98482.61;1742596;81;21077;-75
2021/06/13 03:44:33;;;;;;;8.40;6.08;;;;;;;20.36;65.82;98482.15;1731664;81;21563;-76
2021/06/13 03:46:59;;;;;;;10.05;6.30;;;;;;;20.95;64.16;98480.60;1719024;82;21527;-76
2021/06/13 03:49:26;;;;;;;9.85;6.60;;;;;;;21.37;62.75;98484.41;1730190;82;21619;-75
2021/06/13 03:51:53;;;;;;;10.20;5.85;;;;;;;21.70;61.58;98479.52;1743221;81;21502;-75
2021/06/13 03:54:20;;;;;;;9.13;6.00;;;;;;;22.04;60.16;98476.70;1741791;82;21522;-75
2021/06/13 03:56:51;;;;;;;8.08;6.83;;;;;;;22.29;59.36;98479.48;1741839;82;22120;-76
2021/06/13 03:59:23;;;;;;;8.60;6.62;;;;;;;22.53;58.78;98477.94;1746396;82;21040;-75
2021/06/13 04:01:57;;;;;;;8.05;6.20;;;;;;;22.77;58.09;98471.97;1703039;83;20998;-75
2021/06/13 04:04:25;;;;;;;7.17;5.92;;;;;;;22.97;57.23;98475.33;1703101;84;21082;-76
2021/06/13 04:06:52;;;;;;;8.75;6.20;;;;;;;23.18;56.59;98476.02;1735566;81;21087;-76
2021/06/13 04:09:19;;;;;;;8.50;5.67;;;;;;;23.40;56.04;98475.91;1748421;82;20968;-76
2021/06/13 04:11:46;;;;;;;6.75;5.97;;;;;;;23.71;55.42;98471.97;1720341;82;21011;-75
2021/06/13 04:14:16;;;;;;;6.08;5.12;;;;;;;24.04;54.56;98467.55;1756987;80;20993;-75
2021/06/13 04:16:47;;;;;;;7.53;5.87;;;;;;;24.35;53.72;98462.98;1757959;81;20993;-75
2021/06/13 04:21:31;;;;;;;8.65;6.03;;;;;;;24.73;52.51;98454.78;1796018;79;22995;-76
2021/06/13 04:23:59;;;;;;;7.53;5.95;;;;;;;24.69;52.37;98460.66;1767513;80;21036;-76
2021/06/13 04:26:25;;;;;;;9.05;6.15;;;;;;;24.67;52.25;98457.35;1761817;81;21017;-76
2021/06/13 04:28:53;;;;;;;7.72;6.37;;;;;;;24.73;52.01;98456.13;1760853;81;22247;-76
2021/06/13 04:31:20;;;;;;;7.83;6.20;;;;;;;24.73;51.71;98450.72;1739312;81;21016;-76
2021/06/13 04:33:49;;;;;;;6.87;5.75;;;;;;;24.81;52.10;98451.21;1760188;80;20988;-76
2021/06/13 04:36:18;;;;;;;7.80;6.03;;;;;;;25.05;51.65;98452.57;1743878;81;21032;-76
2021/06/13 04:38:46;;;;;;;7.92;6.20;;;;;;;25.28;51.11;98450.42;1748461;81;21068;-76
2021/06/13 04:41:13;;;;;;;7.70;5.87;;;;;;;25.58;50.47;98444.06;1717296;81;21036;-76
2021/06/13 04:43:39;;;;;;;6.70;6.00;;;;;;;25.85;49.61;98451.66;1668960;85;21044;-75
2021/06/13 04:46:23;;;;;;;;;;;;;;;;;;;;;
2021/06/13 04:48:37;;;;;;;6.85;5.40;;;;;;;26.20;48.67;98458.86;1676511;85;21057;-75
2021/06/13 04:51:07;;;;;;;6.87;5.67;;;;;;;26.41;48.87;98452.50;1682717;84;21553;-75
2021/06/13 04:53:49;;;;;;;6.47;5.70;;;;;;;26.65;47.78;98449.94;1699164;84;21084;-75
2021/06/13 04:56:48;;;;;;;6.28;5.53;;;;;;;26.70;46.73;98450.53;1691943;84;21536;-76
2021/06/13 04:59:14;;;;;;;8.25;5.40;;;;;;;26.51;46.41;98449.97;1681371;84;21053;-74
2021/06/13 05:01:41;;;;;;;8.60;5.40;;;;;;;26.21;46.94;98455.09;1656951;85;21031;-75
2021/06/13 05:04:09;;;;;;;8.23;5.60;;;;;;;26.04;47.66;98448.77;1684430;84;21012;-76
2021/06/13 05:06:37;;;;;;;7.35;5.80;;;;;;;25.92;47.95;98451.00;1690752;85;21087;-76
2021/06/13 05:09:04;;;;;;;6.12;5.50;;;;;;;25.93;47.92;98455.33;1683989;85;21111;-76
2021/06/13 05:11:31;;;;;;;9.10;6.58;;;;;;;26.02;47.76;98458.48;1685826;84;21063;-75
2021/06/13 05:13:58;;;;;;;6.83;5.87;;;;;;;26.17;47.60;98459.36;1681393;84;20984;-74
2021/06/13 05:16:24;;;;;;;5.45;4.95;;;;;;;26.28;47.34;98451.72;1685854;84;21124;-74
2021/06/13 05:18:52;;;;;;;7.67;5.00;;;;;;;26.31;46.95;98447.16;1685816;84;21074;-76
2021/06/13 05:21:19;;;;;;;7.28;4.87;;;;;;;26.29;47.07;98449.30;1673910;85;20984;-75
2021/06/13 05:23:46;;;;;;;7.53;4.85;;;;;;;26.31;46.76;98451.77;1645019;86;21040;-75
2021/06/13 05:26:12;;;;;;;6.00;4.72;;;;;;;26.37;46.97;98439.12;1670538;84;21019;-76
2021/06/13 05:28:40;;;;;;;7.87;4.53;;;;;;;26.48;46.30;98449.08;1691753;84;21022;-75
2021/06/13 05:31:07;;;;;;;6.47;4.85;;;;;;;26.59;46.24;98441.97;1685431;84;21545;-76
2021/06/13 05:33:33;;;;;;;6.72;5.20;;;;;;;26.68;45.56;98441.84;1684947;84;21050;-76
2021/06/13 05:36:01;;;;;;;5.30;4.70;;;;;;;26.74;45.44;98438.70;1686046;84;21015;-76
2021/06/13 05:38:28;;;;;;;5.92;4.12;;;;;;;26.84;45.40;98438.87;1685434;84;21094;-76
2021/06/13 05:40:55;;;;;;;9.15;4.60;;;;;;;26.99;45.41;98429.61;1680970;84;21110;-76
2021/06/13 05:43:21;;;;;;;14.90;4.55;;;;;;;27.10;44.23;98423.82;1685035;84;21033;-76
2021/06/13 05:45:48;;;;;;;4.85;3.72;;;;;;;27.14;44.46;98430.39;1676405;84;21035;-76
2021/06/13 05:48:18;;;;;;;7.03;4.30;;;;;;;27.19;43.99;98432.37;1675021;85;21553;-76
2021/06/13 05:50:49;;;;;;;5.12;4.00;;;;;;;27.22;43.93;98426.42;1666301;84;21600;-75
2021/06/13 05:53:17;;;;;;;5.25;4.47;;;;;;;27.24;43.62;98425.66;1649890;85;21012;-75
2021/06/13 05:55:47;;;;;;;8.83;3.90;;;;;;;27.23;43.53;98422.65;1676850;84;21092;-74
2021/06/13 05:58:16;;;;;;;11.85;4.28;;;;;;;27.23;43.63;98425.36;1668666;85;21017;-75
2021/06/13 06:00:42;;;;;;;8.43;4.53;;;;;;;27.28;43.73;98434.12;1679357;84;21028;-76
2021/06/13 06:03:10;;;;;;;4.55;4.03;;;;;;;27.31;43.88;98428.99;1685363;85;21035;-76
2021/06/13 06:05:40;;;;;;;5.08;4.35;;;;;;;27.38;43.77;98429.36;1684802;85;21079;-76
2021/06/13 06:08:08;;;;;;;6.95;3.80;;;;;;;27.44;43.46;98440.61;1673060;86;21595;-76
2021/06/13 06:10:35;;;;;;;4.78;4.10;;;;;;;27.45;42.99;98436.27;1677032;84;21596;-75
2021/06/13 06:13:04;;;;;;;5.03;4.33;;;;;;;27.45;43.20;98440.34;1685342;85;21059;-75
2021/06/13 06:15:34;;;;;;;5.87;4.55;;;;;;;27.46;42.64;98447.98;1685217;85;21092;-76
2021/06/13 06:18:00;;;;;;;6.58;4.60;;;;;;;27.43;42.71;98448.45;1680895;84;21063;-76
2021/06/13 06:20:27;;;;;;;5.35;4.45;;;;;;;27.40;42.85;98440.28;1672419;85;21065;-76
2021/06/13 06:22:54;;;;;;;5.45;4.50;;;;;;;27.40;43.02;98436.75;1681572;84;21069;-75
2021/06/13 06:25:21;;;;;;;7.90;4.97;;;;;;;27.38;43.18;98447.00;1681231;85;21060;-76
2021/06/13 06:27:48;;;;;;;7.75;4.22;;;;;;;27.41;43.06;98439.77;1676925;85;21043;-75
2021/06/13 06:30:15;;;;;;;5.80;4.00;;;;;;;27.44;43.23;98441.45;1657167;85;21039;-75
2021/06/13 06:32:42;;;;;;;7.22;4.55;;;;;;;27.50;43.58;98436.89;1678054;85;21084;-75
2021/06/13 06:35:10;;;;;;;6.97;4.45;;;;;;;27.58;42.99;98443.23;1671979;84;21526;-75
2021/06/13 06:37:38;;;;;;;9.08;4.30;;;;;;;27.61;43.08;98438.67;1735344;81;21115;-75
2021/06/13 06:40:07;;;;;;;7.45;4.50;;;;;;;27.62;42.97;98430.82;1726302;82;21084;-75
2021/06/13 06:42:33;;;;;;;5.72;4.15;;;;;;;27.68;43.17;98430.88;1730960;82;21005;-76
2021/06/13 06:44:59;;;;;;;5.10;3.92;;;;;;;27.70;42.51;98434.98;1718494;82;21553;-75
2021/06/13 06:47:26;;;;;;;6.80;5.08;;;;;;;27.71;42.69;98429.01;1728042;82;21680;-74
2021/06/13 06:49:52;;;;;;;7.50;6.42;;;;;;;27.76;43.09;98435.34;1720863;82;20980;-76
2021/06/13 06:52:19;;;;;;;10.13;5.25;;;;;;;27.80;42.77;98441.91;1714864;82;21096;-76
2021/06/13 06:54:45;;;;;;;10.88;7.15;;;;;;;27.77;43.01;98440.22;1708727;82;21510;-75
2021/06/13 06:57:12;;;;;;;7.30;5.00;;;;;;;27.73;43.11;98445.88;1712599;83;21001;-75
2021/06/13 06:59:39;;;;;;;10.35;8.00;;;;;;;27.68;43.22;98447.17;1685372;83;21493;-75
2021/06/13 07:02:07;;;;;;;6.22;5.00;;;;;;;27.61;43.08;98453.61;1711316;82;21082;-76
2021/06/13 07:04:34;;;;;;;6.85;5.05;;;;;;;27.54;43.62;98445.36;1721759;82;21003;-75
2021/06/13 07:07:00;;;;;;;9.53;5.08;;;;;;;27.53;43.89;98445.07;1719158;82;20993;-75
2021/06/13 07:09:26;;;;;;;6.12;4.72;;;;;;;27.55;43.82;98449.73;1728014;82;21052;-75
2021/06/13 07:11:53;;;;;;;6.87;5.42;;;;;;;27.57;43.88;98451.12;1731677;82;21029;-75
2021/06/13 07:14:19;;;;;;;6.83;4.78;;;;;;;27.63;43.82;98443.84;1715355;82;21044;-77
2021/06/13 07:16:47;;;;;;;7.22;5.10;;;;;;;27.64;44.10;98444.95;1708707;82;21936;-76
2021/06/13 07:19:14;;;;;;;5.45;4.95;;;;;;;27.60;44.73;98454.67;1719339;82;21137;-75
2021/06/13 07:21:43;;;;;;;7.05;5.20;;;;;;;27.66;44.47;98445.23;1726735;82;21576;-75
2021/06/13 07:24:10;;;;;;;5.00;4.53;;;;;;;27.60;44.10;98451.96;1734811;81;21051;-75
2021/06/13 07:26:38;;;;;;;5.80;5.12;;;;;;;27.50;44.28;98451.83;1722841;82;21044;-73
2021/06/13 07:29:05;;;;;;;8.23;6.97;;;;;;;27.27;44.10;98446.86;1722246;82;21576;-76
2021/06/13 07:31:31;;;;;;;9.10;5.37;;;;;;;27.18;44.49;98444.84;1731375;82;20998;-77
2021/06/13 07:33:57;;;;;;;17.37;6.33;;;;;;;27.04;45.11;98453.84;1735071;82;21040;-76
2021/06/13 07:36:25;;;;;;;12.15;6.17;;;;;;;27.02;44.41;98453.26;1725372;83;21088;-74
2021/06/13 07:38:52;;;;;;;5.45;4.95;;;;;;;27.06;44.88;98458.47;1733002;81;21017;-75
2021/06/13 07:41:18;;;;;;;6.67;5.15;;;;;;;27.16;45.08;98455.91;1744341;81;21078;-75
2021/06/13 07:43:45;;;;;;;6.12;4.75;;;;;;;27.23;44.67;98451.14;1731285;81;21055;-79
2021/06/13 07:46:13;;;;;;;5.85;4.95;;;;;;;27.14;44.34;98449.93;1725804;81;21020;-82
2021/06/13 07:48:39;;;;;;;6.37;5.10;;;;;;;26.74;45.07;98463.95;1729617;81;20965;-82
2021/06/13 07:51:07;;;;;;;5.85;4.72;;;;;;;26.32;45.81;98461.00;1726388;81;21000;-82
2021/06/13 07:53:33;;;;;;;6.53;5.10;;;;;;;26.09;46.95;98461.08;1735590;81;20995;-85
2021/06/13 07:56:00;;;;;;;6.30;5.10;;;;;;;26.06;46.95;98457.52;1728892;81;21011;-85
2021/06/13 07:58:26;;;;;;;8.25;5.40;;;;;;;26.10;46.75;98460.02;1725968;82;21031;-77
2021/06/13 08:00:53;;;;;;;7.92;5.62;;;;;;;26.18;46.76;98465.08;1730124;82;21031;-82
2021/06/13 08:03:20;;;;;;;7.15;5.90;;;;;;;26.31;46.70;98463.41;1726868;83;21020;-83
2021/06/13 08:05:46;;;;;;;5.60;5.00;;;;;;;26.42;46.27;98453.60;1728313;81;20956;-84
2021/06/13 08:08:12;;;;;;;7.95;6.80;;;;;;;26.60;46.70;98458.50;1733329;81;21025;-82
2021/06/13 08:10:39;;;;;;;6.42;5.58;;;;;;;26.66;45.93;98465.14;1728065;81;21013;-83
2021/06/13 08:13:06;;;;;;;7.05;6.00;;;;;;;26.70;45.67;98464.64;1729857;81;21507;-82
2021/06/13 08:15:32;;;;;;;6.95;5.10;;;;;;;26.78;46.17;98464.28;1728933;82;21103;-80
2021/06/13 08:17:59;;;;;;;6.58;5.90;;;;;;;26.79;45.28;98461.32;1698369;82;21103;-77
2021/06/13 08:20:26;;;;;;;6.92;5.47;;;;;;;26.54;45.66;98460.31;1699817;83;20988;-78
2021/06/13 08:22:53;;;;;;;8.65;5.80;;;;;;;26.25;46.00;98458.96;1681107;84;21101;-78
2021/06/13 08:25:20;;;;;;;10.03;5.97;;;;;;;26.17;47.16;98459.36;1715085;82;21033;-77
2021/06/13 08:27:47;;;;;;;5.83;5.33;;;;;;;26.35;47.01;98458.34;1710685;82;20981;-78
2021/06/13 08:30:18;;;;;;;6.10;5.50;;;;;;;26.56;46.41;98460.90;1742461;82;21109;-78
2021/06/13 08:32:46;;;;;;;;;;;;;;;26.60;46.27;98459.34;1718581;82;21084;-78
2021/06/13 08:35:14;;;;;;;6.58;5.47;;;;;;;26.62;46.14;98466.67;1717595;82;20441;-77
2021/06/13 08:37:40;;;;;;;6.72;5.85;;;;;;;26.51;46.27;98473.01;1736135;80;21522;-77
2021/06/13 08:40:08;;;;;;;6.80;5.83;;;;;;;26.39;46.41;98472.23;1708851;82;21579;-77
2021/06/13 08:42:38;;;;;;;20.90;7.65;;;;;;;26.03;46.19;98472.88;1725985;82;20961;-78
2021/06/13 08:45:06;;;;;;;15.23;7.80;;;;;;;25.57;49.42;98482.20;1713119;82;21024;-78
2021/06/13 08:47:32;;;;;;;9.55;6.65;;;;;;;25.21;53.02;98479.47;1717125;82;21001;-78
2021/06/13 08:49:59;;;;;;;8.08;7.20;;;;;;;24.74;53.94;98491.03;1712000;82;21064;-77
2021/06/13 08:52:25;;;;;;;8.33;6.95;;;;;;;24.08;55.15;98480.08;1712531;82;21020;-78
2021/06/13 08:54:51;;;;;;;8.38;7.55;;;;;;;23.51;57.66;98505.37;1709543;84;20984;-78
2021/06/13 08:57:17;;;;;;;8.55;7.65;;;;;;;23.31;59.27;98508.28;1707752;82;21064;-77
2021/06/13 08:59:46;;;;;;;7.70;6.95;;;;;;;23.38;59.54;98514.41;1714834;82;21016;-78
2021/06/13 09:02:14;;;;;;;8.43;6.67;;;;;;;23.38;60.65;98511.72;1715531;83;20997;-79
2021/06/13 09:04:40;;;;;;;8.35;7.33;;;;;;;23.32;60.56;98520.69;1712036;84;21539;-78
2021/06/13 09:07:25;;;;;;;7.45;6.45;;;;;;;23.18;60.61;98513.23;1710853;84;21036;-78
2021/06/13 09:09:52;;;;;;;7.35;6.20;;;;;;;23.20;62.16;98504.95;1708451;83;21536;-79
2021/06/13 09:12:19;;;;;;;9.93;7.25;;;;;;;23.43;60.97;98502.13;1710509;82;21032;-83
2021/06/13 09:14:50;;;;;;;8.28;7.30;;;;;;;23.47;59.58;98496.61;1721181;82;20981;-79
2021/06/13 09:17:26;;;;;;;8.60;7.35;;;;;;;23.54;60.04;98496.84;1680021;84;21535;-77
2021/06/13 09:20:23;;;;;;;6.90;6.30;;;;;;;23.79;60.17;98493.25;1715523;82;21013;-80
2021/06/13 09:23:11;;;;;;;8.53;6.90;;;;;;;24.06;59.84;98497.02;1722070;81;21001;-78
2021/06/13 09:25:41;;;;;;;7.20;6.50;;;;;;;24.29;58.44;98497.66;1731886;81;21458;-80
2021/06/13 09:28:16;;;;;;;6.60;6.00;;;;;;;24.50;57.56;98488.75;1726741;82;21020;-78
2021/06/13 09:30:47;;;;;;;7.42;6.58;;;;;;;24.68;56.56;98481.14;1727487;83;21041;-79
2021/06/13 09:33:25;;;;;;;6.05;5.45;;;;;;;24.77;56.19;98482.48;1698048;83;21084;-79
2021/06/13 09:35:52;;;;;;;5.70;5.20;;;;;;;24.88;55.06;98480.84;1692907;83;21380;-78
2021/06/13 09:38:30;;;;;;;8.73;7.80;;;;;;;24.91;55.33;98487.66;1663574;85;21119;-79
2021/06/13 09:41:07;;;;;;;7.35;6.40;;;;;;;24.95;55.75;98489.67;1686588;84;21040;-81
2021/06/13 09:43:41;;;;;;;7.30;5.78;;;;;;;25.07;53.61;98486.17;1675241;85;21119;-80
2021/06/13 09:46:12;;;;;;;5.55;4.97;;;;;;;24.96;53.64;98495.39;1679961;85;20980;-80
2021/06/13 09:48:42;;;;;;;4.92;4.35;;;;;;;24.85;53.96;98498.89;1675394;84;21035;-80
2021/06/13 09:51:12;;;;;;;6.17;4.85;;;;;;;24.64;53.33;98497.02;1678319;84;21028;-82
2021/06/13 09:53:44;;;;;;;5.00;4.50;;;;;;;24.27;53.67;98496.24;1677177;84;21024;-81
2021/06/13 09:56:41;;;;;;;5.20;3.85;;;;;;;23.87;54.24;98506.97;1686073;84;21055;-80
2021/06/13 09:59:13;;;;;;;4.90;3.42;;;;;;;23.54;55.27;98512.19;1670884;84;21043;-82
2021/06/13 10:01:53;;;;;;;5.28;3.30;;;;;;;23.00;55.67;98516.67;1679978;84;20984;-83
2021/06/13 10:04:26;;;;;;;4.80;3.67;;;;;;;22.58;56.64;98513.13;1674797;84;21091;-82
2021/06/13 10:06:58;;;;;;;3.37;2.70;;;;;;;22.20;57.21;98519.30;1675746;84;21011;-79
2021/06/13 10:09:37;;;;;;;4.22;3.20;;;;;;;21.89;57.97;98532.97;1683715;84;21048;-79
2021/06/13 10:12:06;;;;;;;2.98;2.67;;;;;;;21.80;59.06;98524.80;1677538;84;21478;-79
2021/06/13 10:14:34;;;;;;;2.58;2.37;;;;;;;21.93;59.35;98518.55;1683337;84;21039;-78
2021/06/13 10:17:02;;;;;;;4.08;2.52;;;;;;;22.19;58.14;98525.72;1679233;84;22283;-78
2021/06/13 10:19:42;;;;;;;3.27;2.40;;;;;;;22.36;56.56;98533.31;1678351;83;21650;-80
2021/06/13 10:22:10;;;;;;;4.95;2.40;;;;;;;22.39;56.31;98529.70;1666291;84;21005;-82
2021/06/13 10:24:39;;;;;;;2.60;2.25;;;;;;;22.31;55.63;98535.29;1650254;85;21576;-82
2021/06/13 10:27:11;;;;;;;2.60;2.35;;;;;;;22.19;55.86;98522.20;1650893;85;20997;-82
2021/06/13 10:29:40;;;;;;;2.10;1.90;;;;;;;22.05;56.06;98506.09;1658078;85;20998;-82
2021/06/13 10:32:07;;;;;;;2.40;2.20;;;;;;;21.87;56.64;98501.93;1685715;84;20998;-82
2021/06/13 10:34:34;;;;;;;3.35;1.90;;;;;;;21.71;57.19;98483.84;1724837;82;21325;-82
2021/06/13 10:37:09;;;;;;;2.25;1.82;;;;;;;21.73;58.31;98471.02;1725832;82;21127;-82
2021/06/13 10:39:37;;;;;;;2.90;2.30;;;;;;;21.87;57.09;98491.16;1724377;82;21154;-82
2021/06/13 10:42:07;;;;;;;2.58;2.20;;;;;;;21.90;55.45;98500.15;1721131;82;21335;-82
2021/06/13 10:44:51;;;;;;;2.17;1.98;;;;;;;21.82;54.68;98516.01;1697258;83;21063;-82
2021/06/13 10:47:18;;;;;;;2.05;1.85;;;;;;;21.76;55.27;98529.80;1729478;82;20996;-82
2021/06/13 10:50:08;;;;;;;2.62;1.95;;;;;;;21.77;54.49;98554.30;1721507;82;20985;-80
2021/06/13 10:52:35;;;;;;;1.92;1.72;;;;;;;21.68;54.52;98556.09;1721502;83;21047;-80
2021/06/13 10:55:05;;;;;;;2.87;1.62;;;;;;;21.70;54.53;98559.39;1725372;83;21041;-80
2021/06/13 10:57:38;;;;;;;3.50;1.90;;;;;;;21.86;53.87;98558.13;1728341;82;21037;-80
2021/06/13 11:00:27;;;;;;;3.37;1.80;;;;;;;21.98;53.66;98560.46;1725351;82;20981;-79
2021/06/13 11:02:57;;;;;;;2.45;2.00;;;;;;;22.05;51.78;98561.28;1723678;83;21626;-80
2021/06/13 11:05:44;;;;;;;1.98;1.77;;;;;;;21.93;52.45;98555.73;1724968;82;21108;-81
2021/06/13 11:08:11;;;;;;;2.42;2.00;;;;;;;21.90;52.69;98557.48;1727952;82;21058;-84
2021/06/13 11:10:41;;;;;;;2.00;1.80;;;;;;;21.85;52.97;98559.16;1724506;82;21001;-82
2021/06/13 11:13:17;;;;;;;2.50;1.87;;;;;;;21.93;53.18;98544.97;1725928;83;20993;-83
2021/06/13 11:15:49;;;;;;;4.25;2.33;;;;;;;22.10;52.95;98545.31;1724807;82;21534;-83
2021/06/13 11:18:20;;;;;;;2.30;1.90;;;;;;;22.33;53.16;98555.27;1724119;83;21191;-83
2021/06/13 11:20:55;;;;;;;3.62;2.00;;;;;;;22.59;53.17;98549.78;1722110;83;21039;-80
2021/06/13 11:23:27;;;;;;;3.15;2.00;;;;;;;22.75;52.69;98539.03;1707161;82;21020;-81
2021/06/13 11:25:57;;;;;;;2.17;1.77;;;;;;;22.89;51.31;98542.98;1723843;83;21140;-81
2021/06/13 11:28:34;;;;;;;3.83;2.20;;;;;;;22.83;50.08;98550.61;1722374;83;21313;-82
2021/06/13 11:31:17;;;;;;;4.37;2.52;;;;;;;22.62;50.86;98547.18;1723029;83;21027;-80
2021/06/13 11:33:47;;;;;;;3.47;2.00;;;;;;;22.54;51.37;98554.18;1720198;82;21056;-82
2021/06/13 11:36:23;;;;;;;2.90;1.92;;;;;;;22.45;50.60;98555.48;1716890;82;21107;-88
2021/06/13 11:38:55;;;;;;;1.90;1.70;;;;;;;22.28;50.92;98558.62;1740967;80;21165;-82
2021/06/13 11:41:34;;;;;;;2.77;2.45;;;;;;;22.18;51.21;98563.62;1737327;81;21068;-82
2021/06/13 11:44:05;;;;;;;3.42;2.20;;;;;;;22.18;51.57;98556.91;1737212;82;21044;-81
2021/06/13 11:46:35;;;;;;;2.87;2.22;;;;;;;22.24;51.55;98561.44;1730843;82;21524;-82
2021/06/13 11:49:04;;;;;;;2.02;1.77;;;;;;;22.14;51.54;98565.91;1733792;82;21031;-84
2021/06/13 11:51:31;;;;;;;2.83;2.50;;;;;;;21.93;51.05;98565.15;1730171;81;21032;-85